createdAt,value
2023-01-23T00:01:26.732Z,10.60
2023-01-23T00:04:13.749Z,10.60
2023-01-23T00:06:57.703Z,10.57
2023-01-23T00:09:41.528Z,11.23
2023-01-23T00:12:25.731Z,11.10
2023-01-23T00:15:10.546Z,10.27
2023-01-23T00:17:55.949Z,10.87
2023-01-23T00:20:39.914Z,9.47
2023-01-23T00:23:23.824Z,9.43
2023-01-23T00:26:09.100Z,9.73
2023-01-23T00:28:53.939Z,9.63
2023-01-23T00:31:39.798Z,8.80
2023-01-23T00:34:26.669Z,9.33
2023-01-23T00:37:10.529Z,9.67
2023-01-23T00:39:54.327Z,9.97
2023-01-23T00:42:38.193Z,8.83
2023-01-23T00:45:21.956Z,9.13
2023-01-23T00:48:06.002Z,8.97
2023-01-23T00:50:51.599Z,9.27
2023-01-23T00:53:35.378Z,9.87
2023-01-23T00:56:19.339Z,9.07
2023-01-23T00:59:04.153Z,9.63
2023-01-23T01:01:48.240Z,8.60
2023-01-23T01:04:32.740Z,9.27
2023-01-23T01:07:21.044Z,9.43
2023-01-23T01:10:05.295Z,8.70
2023-01-23T01:12:49.319Z,8.87
2023-01-23T01:15:33.301Z,9.23
2023-01-23T01:18:17.955Z,9.07
2023-01-23T01:21:02.232Z,9.87
2023-01-23T01:23:48.086Z,10.20
2023-01-23T01:26:32.506Z,8.27
2023-01-23T01:29:16.547Z,7.83
2023-01-23T01:32:00.815Z,8.50
2023-01-23T01:34:45.166Z,8.33
2023-01-23T01:37:29.228Z,9.50
2023-01-23T01:40:18.267Z,9.80
2023-01-23T01:43:05.431Z,9.13
2023-01-23T01:46:15.159Z,10.40
2023-01-23T01:49:07.633Z,9.83
2023-01-23T01:51:56.038Z,10.50
2023-01-23T01:54:44.345Z,10.40
2023-01-23T01:57:33.257Z,9.33
2023-01-23T02:00:20.692Z,8.50
2023-01-23T02:03:05.508Z,8.20
2023-01-23T02:05:52.131Z,7.80
2023-01-23T02:08:43.196Z,8.30
2023-01-23T02:11:27.176Z,7.90
2023-01-23T02:14:14.601Z,8.53
2023-01-23T02:17:01.347Z,9.50
2023-01-23T02:19:52.991Z,8.77
2023-01-23T02:22:45.780Z,9.50
2023-01-23T02:25:40.457Z,9.20
2023-01-23T02:28:38.458Z,9.83
2023-01-23T02:31:23.972Z,9.73
2023-01-23T02:34:07.932Z,10.20
2023-01-23T02:36:51.877Z,10.43
2023-01-23T02:39:36.051Z,11.17
2023-01-23T02:42:20.687Z,10.70
2023-01-23T02:45:10.808Z,10.67
2023-01-23T02:47:54.658Z,11.33
2023-01-23T02:50:38.621Z,10.90
2023-01-23T02:53:22.463Z,11.63
2023-01-23T02:56:09.239Z,11.57
2023-01-23T02:59:10.511Z,11.00
2023-01-23T03:01:55.798Z,10.60
2023-01-23T03:04:39.604Z,10.10
2023-01-23T03:07:23.378Z,11.17
2023-01-23T03:10:08.804Z,11.47
2023-01-23T03:12:52.594Z,11.77
2023-01-23T03:15:38.523Z,10.90
2023-01-23T03:18:23.800Z,11.43
2023-01-23T03:21:09.380Z,11.53
2023-01-23T03:23:53.281Z,12.00
2023-01-23T03:26:40.093Z,11.27
2023-01-23T03:29:44.449Z,12.50
2023-01-23T03:32:30.975Z,11.90
2023-01-23T03:35:18.159Z,11.43
2023-01-23T03:38:02.160Z,13.27
2023-01-23T03:41:03.714Z,12.43
2023-01-23T03:43:50.924Z,13.03
2023-01-23T03:46:34.814Z,11.37
2023-01-23T03:49:19.783Z,11.90
2023-01-23T03:52:09.590Z,10.50
2023-01-23T03:54:53.704Z,11.03
2023-01-23T03:57:37.772Z,11.97
2023-01-23T04:00:33.566Z,11.10
2023-01-23T04:03:21.644Z,11.07
2023-01-23T04:06:05.934Z,12.03
2023-01-23T04:08:51.352Z,12.47
2023-01-23T04:11:35.488Z,11.67
2023-01-23T04:14:19.591Z,12.67
2023-01-23T04:17:03.573Z,13.00
2023-01-23T04:19:47.745Z,11.17
2023-01-23T04:22:31.885Z,11.13
2023-01-23T04:25:17.276Z,11.10
2023-01-23T04:28:01.554Z,11.97
2023-01-23T04:30:45.881Z,9.33
2023-01-23T04:33:36.804Z,10.67
2023-01-23T04:36:20.638Z,8.40
2023-01-23T04:39:05.118Z,10.07
2023-01-23T04:41:50.949Z,9.80
2023-01-23T04:44:53.010Z,10.73
2023-01-23T04:47:39.825Z,10.70
2023-01-23T04:50:27.189Z,10.70
2023-01-23T04:53:11.439Z,12.47
2023-01-23T04:55:55.724Z,13.30
2023-01-23T04:58:41.103Z,10.57
2023-01-23T05:01:26.912Z,12.10
2023-01-23T05:04:15.841Z,13.40
2023-01-23T05:07:01.215Z,14.27
2023-01-23T05:09:46.937Z,13.03
2023-01-23T05:12:33.019Z,11.67
2023-01-23T05:15:18.406Z,10.70
2023-01-23T05:18:04.702Z,11.40
2023-01-23T05:20:51.577Z,11.47
2023-01-23T05:23:35.483Z,11.53
2023-01-23T05:26:19.945Z,11.27
2023-01-23T05:29:04.693Z,11.80
2023-01-23T05:31:53.623Z,11.70
2023-01-23T05:35:00.731Z,11.23
2023-01-23T05:37:51.319Z,10.87
2023-01-23T05:40:38.656Z,10.40
2023-01-23T05:43:31.217Z,12.70
2023-01-23T05:46:17.594Z,11.70
2023-01-23T05:49:09.269Z,9.33
2023-01-23T05:51:53.911Z,10.73
2023-01-23T05:54:37.812Z,10.57
2023-01-23T05:57:21.841Z,10.33
2023-01-23T06:00:41.084Z,11.70
2023-01-23T06:03:43.879Z,10.73
2023-01-23T06:06:48.124Z,10.40
2023-01-23T06:09:31.824Z,14.43
2023-01-23T06:12:15.573Z,9.13
2023-01-23T06:14:59.567Z,9.60
2023-01-23T06:17:43.593Z,9.87
2023-01-23T06:20:27.586Z,10.47
2023-01-23T06:23:13.627Z,10.07
2023-01-23T06:26:01.769Z,11.23
2023-01-23T06:28:46.292Z,11.50
2023-01-23T06:31:32.813Z,12.40
2023-01-23T06:34:19.119Z,11.23
2023-01-23T06:37:12.586Z,9.87
2023-01-23T06:40:01.451Z,9.80
2023-01-23T06:42:46.855Z,10.53
2023-01-23T06:45:30.802Z,10.80
2023-01-23T06:48:15.549Z,11.60
2023-01-23T06:51:01.399Z,11.23
2023-01-23T06:53:46.303Z,10.27
2023-01-23T06:56:31.833Z,10.67
2023-01-23T06:59:18.270Z,9.93
2023-01-23T07:02:02.917Z,10.67
2023-01-23T07:04:54.855Z,10.90
2023-01-23T07:07:38.764Z,9.60
2023-01-23T07:10:23.189Z,10.43
2023-01-23T07:13:09.740Z,9.10
2023-01-23T07:15:53.894Z,9.63
2023-01-23T07:18:39.510Z,10.03
2023-01-23T07:21:26.737Z,8.97
2023-01-23T07:24:10.968Z,12.70
2023-01-23T07:26:54.880Z,10.50
2023-01-23T07:29:40.066Z,9.87
2023-01-23T07:32:23.982Z,10.43
2023-01-23T07:35:09.800Z,10.33
2023-01-23T07:37:54.057Z,11.60
2023-01-23T07:40:39.380Z,9.63
2023-01-23T07:43:23.554Z,8.27
2023-01-23T07:46:09.705Z,9.63
2023-01-23T07:48:54.562Z,10.10
2023-01-23T07:51:38.433Z,11.80
2023-01-23T07:54:22.599Z,10.87
2023-01-23T07:57:06.692Z,8.30
2023-01-23T07:59:50.734Z,10.53
2023-01-23T08:02:36.142Z,11.27
2023-01-23T08:05:20.179Z,10.60
2023-01-23T08:08:13.231Z,9.57
2023-01-23T08:10:57.713Z,10.67
2023-01-23T08:13:42.256Z,10.40
2023-01-23T08:16:26.397Z,10.57
2023-01-23T08:19:12.067Z,10.77
2023-01-23T08:21:56.069Z,10.83
2023-01-23T08:24:40.001Z,12.33
2023-01-23T08:27:24.021Z,12.73
2023-01-23T08:30:09.282Z,31.40
2023-01-23T08:32:53.375Z,51.93
2023-01-23T08:35:38.989Z,15.47
2023-01-23T08:38:23.771Z,9.40
2023-01-23T08:41:10.140Z,11.60
2023-01-23T08:43:54.275Z,9.83
2023-01-23T08:46:38.355Z,10.47
2023-01-23T08:49:22.344Z,13.90
2023-01-23T08:52:08.142Z,15.07
2023-01-23T08:54:52.037Z,9.13
2023-01-23T08:57:36.096Z,16.77
2023-01-23T09:00:21.585Z,11.17
2023-01-23T09:03:06.543Z,10.13
2023-01-23T09:05:50.829Z,9.17
2023-01-23T09:08:38.426Z,8.70
2023-01-23T09:11:24.003Z,9.80
2023-01-23T09:14:08.295Z,10.87
2023-01-23T09:16:52.680Z,12.63
2023-01-23T09:19:37.313Z,9.93
2023-01-23T09:22:21.642Z,7.70
2023-01-23T09:25:07.942Z,10.63
2023-01-23T09:27:51.764Z,10.53
2023-01-23T09:30:35.724Z,13.07
2023-01-23T09:33:24.747Z,10.27
2023-01-23T09:36:15.674Z,9.57
2023-01-23T09:38:59.679Z,8.17
2023-01-23T09:41:47.547Z,7.87
2023-01-23T09:44:38.522Z,10.03
2023-01-23T09:47:27.871Z,10.73
2023-01-23T09:50:19.776Z,9.40
2023-01-23T09:53:14.239Z,8.17
2023-01-23T09:56:03.259Z,10.67
2023-01-23T09:59:00.588Z,11.57
2023-01-23T10:01:44.381Z,12.63
2023-01-23T10:04:28.240Z,13.47
2023-01-23T10:07:32.464Z,12.07
2023-01-23T10:10:34.498Z,16.27
2023-01-23T10:13:20.879Z,25.30
2023-01-23T10:16:20.140Z,10.73
2023-01-23T10:19:16.432Z,15.00
2023-01-23T10:22:05.425Z,17.67
2023-01-23T10:24:52.330Z,15.47
2023-01-23T10:27:42.257Z,12.00
2023-01-23T10:30:29.962Z,12.13
2023-01-23T10:33:17.386Z,53.70
2023-01-23T10:36:07.259Z,15.47
2023-01-23T10:38:58.560Z,14.57
2023-01-23T10:41:44.436Z,15.50
2023-01-23T10:44:30.513Z,13.73
2023-01-23T10:47:21.162Z,16.90
2023-01-23T10:50:07.461Z,13.53
2023-01-23T10:52:51.503Z,11.13
2023-01-23T10:55:35.342Z,13.10
2023-01-23T10:58:30.887Z,10.30
2023-01-23T11:01:27.728Z,10.40
2023-01-23T11:04:18.832Z,12.57
2023-01-23T11:07:08.571Z,9.93
2023-01-23T11:09:55.796Z,12.03
2023-01-23T11:12:49.261Z,12.50
2023-01-23T11:15:36.699Z,13.87
2023-01-23T11:18:32.400Z,14.03
2023-01-23T11:21:22.597Z,12.57
2023-01-23T11:24:27.830Z,19.37
2023-01-23T11:27:20.548Z,12.53
2023-01-23T11:30:32.802Z,20.67
2023-01-23T11:33:30.567Z,14.10
2023-01-23T11:36:31.361Z,20.07
2023-01-23T11:39:37.385Z,11.80
2023-01-23T11:42:21.470Z,11.83
2023-01-23T11:45:07.355Z,10.57
2023-01-23T11:48:12.713Z,15.37
2023-01-23T11:51:07.788Z,12.27
2023-01-23T11:54:00.033Z,15.07
2023-01-23T11:57:11.487Z,61.40
2023-01-23T12:00:07.970Z,65.93
2023-01-23T12:03:34.070Z,20.73
2023-01-23T12:06:37.773Z,16.70
2023-01-23T12:09:22.764Z,15.83
2023-01-23T12:12:18.216Z,16.10
2023-01-23T12:15:07.407Z,11.73
2023-01-23T12:20:58.439Z,15.53
2023-01-23T12:24:04.557Z,17.37
2023-01-23T12:27:02.548Z,18.80
2023-01-23T12:30:09.795Z,17.13
2023-01-23T12:33:09.299Z,14.70
2023-01-23T12:36:02.657Z,13.20
2023-01-23T12:39:00.566Z,13.30
2023-01-23T12:41:50.513Z,14.10
2023-01-23T12:44:39.634Z,15.60
2023-01-23T12:47:28.372Z,16.37
2023-01-23T12:50:20.900Z,17.93
2023-01-23T12:53:10.216Z,16.73
2023-01-23T12:56:03.599Z,18.43
2023-01-23T12:58:54.768Z,17.17
2023-01-23T13:01:54.003Z,15.33
2023-01-23T13:04:54.968Z,15.60
2023-01-23T13:07:50.048Z,17.33
2023-01-23T13:11:08.701Z,19.83
2023-01-23T13:13:52.802Z,19.43
2023-01-23T13:16:47.552Z,19.33
2023-01-23T13:19:50.593Z,25.33
2023-01-23T13:22:38.633Z,20.37
2023-01-23T13:25:22.589Z,19.93
2023-01-23T13:28:46.495Z,23.03
2023-01-23T13:31:50.697Z,21.17
2023-01-23T13:34:41.779Z,23.47
2023-01-23T13:37:52.488Z,25.33
2023-01-23T13:40:36.553Z,24.43
2023-01-23T13:43:44.306Z,23.07
2023-01-23T14:22:22.759Z,16.73
2023-01-23T14:25:17.832Z,14.60
2023-01-23T14:28:06.416Z,17.77
2023-01-23T14:30:58.054Z,15.57
2023-01-23T14:33:45.866Z,16.40
2023-01-23T14:36:30.346Z,19.30
2023-01-23T14:39:19.400Z,21.23
2023-01-23T14:42:06.528Z,25.27
2023-01-23T14:44:52.596Z,25.97
2023-01-23T14:47:42.497Z,24.83
2023-01-23T14:50:31.075Z,20.00
2023-01-23T14:53:17.820Z,27.57
2023-01-23T14:56:02.659Z,24.93
2023-01-23T14:58:48.232Z,20.30
2023-01-23T15:01:34.079Z,19.40
2023-01-23T15:04:23.509Z,22.60
2023-01-23T15:07:18.481Z,20.77
2023-01-23T15:10:02.737Z,22.87
2023-01-23T15:12:53.089Z,25.17
2023-01-23T15:15:37.512Z,19.80
2023-01-23T15:18:24.486Z,24.23
2023-01-23T15:21:09.543Z,25.33
2023-01-23T15:24:08.691Z,17.87
2023-01-23T15:27:01.226Z,18.10
2023-01-23T15:29:45.130Z,27.23
2023-01-23T15:32:29.156Z,19.63
2023-01-23T15:35:18.446Z,22.70
2023-01-23T15:38:05.570Z,23.70
2023-01-23T15:40:51.433Z,15.83
2023-01-23T15:43:35.133Z,14.73
2023-01-23T15:46:18.935Z,17.23
2023-01-23T15:49:03.411Z,16.50
2023-01-23T15:51:48.231Z,16.37
2023-01-23T15:54:35.993Z,18.37
2023-01-23T15:57:21.865Z,20.67
2023-01-23T16:00:15.734Z,19.27
2023-01-23T16:03:00.845Z,18.37
2023-01-23T16:05:44.787Z,14.07
2023-01-23T16:08:28.863Z,19.00
2023-01-23T16:11:12.699Z,17.77
2023-01-23T16:13:57.929Z,20.40
2023-01-23T16:16:41.928Z,17.20
2023-01-23T16:19:25.922Z,18.30
2023-01-23T16:22:15.243Z,18.23
2023-01-23T16:24:59.546Z,21.37
2023-01-23T16:27:43.237Z,22.20
2023-01-23T16:30:28.991Z,16.20
2023-01-23T16:33:13.169Z,25.33
2023-01-23T16:35:57.402Z,21.40
2023-01-23T16:38:41.383Z,18.67
2023-01-23T16:41:25.245Z,17.07
2023-01-23T16:44:11.623Z,19.33
2023-01-23T16:46:56.831Z,23.53
2023-01-23T16:49:51.450Z,20.83
2023-01-23T16:52:36.378Z,21.50
2023-01-23T16:55:23.913Z,19.40
2023-01-23T16:58:11.994Z,22.57
2023-01-23T17:01:01.121Z,16.53
2023-01-23T17:03:46.741Z,15.77
2023-01-23T17:06:31.428Z,15.37
2023-01-23T17:09:15.999Z,15.63
2023-01-23T17:11:59.943Z,20.33
2023-01-23T17:14:44.973Z,17.20
2023-01-23T17:17:39.075Z,16.33
2023-01-23T17:20:24.571Z,14.13
2023-01-23T17:23:08.431Z,17.63
2023-01-23T17:26:00.742Z,14.87
2023-01-23T17:28:45.799Z,14.50
2023-01-23T17:31:32.643Z,17.43
2023-01-23T17:34:22.436Z,14.87
2023-01-23T17:37:18.872Z,10.77
2023-01-23T17:40:03.381Z,13.77
2023-01-23T17:42:47.915Z,13.70
2023-01-23T17:45:31.958Z,12.83
2023-01-23T17:48:18.044Z,11.37
2023-01-23T17:51:02.358Z,12.17
2023-01-23T17:53:48.364Z,14.43
2023-01-23T17:56:32.402Z,16.10
2023-01-23T17:59:16.351Z,13.70
2023-01-23T18:02:00.500Z,13.33
2023-01-23T18:04:44.618Z,17.23
2023-01-23T18:07:28.836Z,12.67
2023-01-23T18:10:14.665Z,16.83
2023-01-23T18:13:10.389Z,12.10
2023-01-23T18:16:05.081Z,12.80
2023-01-23T18:18:54.644Z,13.60
2023-01-23T18:21:40.337Z,10.63
2023-01-23T18:24:27.912Z,15.27
2023-01-23T18:27:22.534Z,11.27
2023-01-23T18:30:35.737Z,13.63
2023-01-23T18:33:51.383Z,11.13
2023-01-23T18:36:49.816Z,19.10
2023-01-23T18:39:45.436Z,11.13
2023-01-23T18:42:38.779Z,15.00
2023-01-23T18:45:27.654Z,11.93
2023-01-23T18:48:24.505Z,12.43
2023-01-23T18:51:22.874Z,10.33
2023-01-23T18:54:20.788Z,14.67
2023-01-23T18:57:20.997Z,11.03
2023-01-23T19:00:18.190Z,10.93
2023-01-23T19:03:11.396Z,10.87
2023-01-23T19:05:57.471Z,8.73
2023-01-23T19:08:43.599Z,10.70
2023-01-23T19:11:38.950Z,15.37
2023-01-23T19:14:38.387Z,13.03
2023-01-23T19:17:37.422Z,9.37
2023-01-23T19:20:31.304Z,9.67
2023-01-23T19:23:27.846Z,9.07
2023-01-23T19:26:15.908Z,14.43
2023-01-23T19:29:19.124Z,9.70
2023-01-23T19:32:06.534Z,12.37
2023-01-23T19:34:56.385Z,9.53
2023-01-23T19:37:43.202Z,15.73
2023-01-23T19:40:29.081Z,13.80
2023-01-23T19:43:17.999Z,10.57
2023-01-23T19:46:04.908Z,11.23
2023-01-23T19:48:50.964Z,7.07
2023-01-23T19:51:38.095Z,8.50
2023-01-23T19:54:24.297Z,7.00
2023-01-23T19:57:09.849Z,9.30
2023-01-23T19:59:55.410Z,8.33
2023-01-23T20:02:40.533Z,12.33
2023-01-23T20:05:26.377Z,8.33
2023-01-23T20:08:12.831Z,10.13
2023-01-23T20:10:57.612Z,9.63
2023-01-23T20:13:42.863Z,11.20
2023-01-23T20:16:27.106Z,16.53
2023-01-23T20:19:14.603Z,10.60
2023-01-23T20:21:58.759Z,9.23
2023-01-23T20:24:44.660Z,9.93
2023-01-23T20:27:29.937Z,8.07
2023-01-23T20:30:21.306Z,8.37
2023-01-23T20:33:08.452Z,10.33
2023-01-23T20:35:53.806Z,9.53
2023-01-23T20:38:38.255Z,12.90
2023-01-23T20:41:24.448Z,13.33
2023-01-23T20:44:08.974Z,12.10
2023-01-23T20:46:53.155Z,9.50
2023-01-23T20:49:37.349Z,9.50
2023-01-23T20:52:44.509Z,9.10
2023-01-23T20:55:28.611Z,7.90
2023-01-23T20:58:31.304Z,7.07
2023-01-23T21:01:16.239Z,8.07
2023-01-23T21:04:00.216Z,7.37
2023-01-23T21:06:44.551Z,7.63
2023-01-23T21:09:29.043Z,7.27
2023-01-23T21:12:13.393Z,7.07
2023-01-23T21:14:58.737Z,7.33
2023-01-23T21:17:42.695Z,8.13
2023-01-23T21:20:26.634Z,7.53
2023-01-23T21:23:10.491Z,8.00
2023-01-23T21:26:01.773Z,7.70
2023-01-23T21:28:49.877Z,8.50
2023-01-23T21:31:37.239Z,8.70
2023-01-23T21:34:21.186Z,9.20
2023-01-23T21:37:07.313Z,8.83
2023-01-23T21:39:51.414Z,9.43
2023-01-23T21:42:35.265Z,9.73
2023-01-23T21:45:19.257Z,9.00
2023-01-23T21:48:05.422Z,9.33
2023-01-23T21:50:49.324Z,8.90
2023-01-23T21:53:33.255Z,8.47
2023-01-23T21:56:19.114Z,8.93
2023-01-23T21:59:03.052Z,9.63
2023-01-23T22:01:46.908Z,8.80
2023-01-23T22:04:32.283Z,9.23
2023-01-23T22:07:16.172Z,8.73
2023-01-23T22:09:59.929Z,10.10
2023-01-23T22:12:43.633Z,11.27
2023-01-23T22:15:27.581Z,9.63
2023-01-23T22:18:11.619Z,9.47
2023-01-23T22:20:57.708Z,9.23
2023-01-23T22:23:41.595Z,9.40
2023-01-23T22:26:25.482Z,8.97
2023-01-23T22:29:09.672Z,10.47
2023-01-23T22:31:53.809Z,10.53
2023-01-23T22:34:38.047Z,8.27
2023-01-23T22:37:23.400Z,10.90
2023-01-23T22:40:09.232Z,11.30
2023-01-23T22:42:53.097Z,10.40
2023-01-23T22:45:37.270Z,10.77
2023-01-23T22:48:21.131Z,12.33
2023-01-23T22:51:06.499Z,11.30
2023-01-23T22:53:51.976Z,10.63
2023-01-23T22:56:35.776Z,11.13
2023-01-23T22:59:19.636Z,10.87
2023-01-23T23:02:03.406Z,10.17
2023-01-23T23:04:49.939Z,11.57
2023-01-23T23:07:33.785Z,11.33
2023-01-23T23:10:19.317Z,10.47
2023-01-23T23:13:03.192Z,11.23
2023-01-23T23:15:47.058Z,11.20
2023-01-23T23:18:31.051Z,10.33
2023-01-23T23:21:17.201Z,9.17
2023-01-23T23:24:02.116Z,10.93
2023-01-23T23:26:48.145Z,10.43
2023-01-23T23:29:32.032Z,9.83
2023-01-23T23:32:16.133Z,9.00
2023-01-23T23:35:00.060Z,9.67
2023-01-23T23:37:44.009Z,9.80
2023-01-23T23:40:27.937Z,10.13
2023-01-23T23:43:13.189Z,10.27
2023-01-23T23:45:59.119Z,10.07
2023-01-23T23:48:43.769Z,10.60
2023-01-23T23:51:27.634Z,10.93
2023-01-23T23:54:11.633Z,10.53
2023-01-23T23:56:55.523Z,10.93
2023-01-23T23:59:40.740Z,11.43
